sensor_id;sensor_type;location;lat;lon;timestamp;P1;durP1;ratioP1;P2;durP2;ratioP2
58972;SDS011;44750;52.040;7.472;2023-12-14T00:03:50;5.17;;;4.57;;
58972;SDS011;44750;52.040;7.472;2023-12-14T00:08:51;7.05;;;5.03;;
58972;SDS011;44750;52.040;7.472;2023-12-14T00:13:51;5.97;;;4.68;;
58972;SDS011;44750;52.040;7.472;2023-12-14T00:18:51;6.63;;;5.18;;
58972;SDS011;44750;52.040;7.472;2023-12-14T00:23:51;5.93;;;5.00;;
58972;SDS011;44750;52.040;7.472;2023-12-14T00:28:52;5.40;;;4.72;;
58972;SDS011;44750;52.040;7.472;2023-12-14T00:33:52;7.45;;;5.50;;
58972;SDS011;44750;52.040;7.472;2023-12-14T00:38:52;7.40;;;6.03;;
58972;SDS011;44750;52.040;7.472;2023-12-14T00:43:52;8.57;;;6.82;;
58972;SDS011;44750;52.040;7.472;2023-12-14T00:48:52;6.22;;;5.60;;
58972;SDS011;44750;52.040;7.472;2023-12-14T00:53:53;10.90;;;6.93;;
58972;SDS011;44750;52.040;7.472;2023-12-14T00:58:53;7.75;;;6.60;;
58972;SDS011;44750;52.040;7.472;2023-12-14T01:03:53;7.90;;;6.80;;
58972;SDS011;44750;52.040;7.472;2023-12-14T01:08:53;7.07;;;6.13;;
58972;SDS011;44750;52.040;7.472;2023-12-14T01:13:54;9.90;;;6.75;;
58972;SDS011;44750;52.040;7.472;2023-12-14T01:18:54;7.82;;;6.57;;
58972;SDS011;44750;52.040;7.472;2023-12-14T01:23:54;10.70;;;7.47;;
58972;SDS011;44750;52.040;7.472;2023-12-14T01:28:54;8.68;;;7.13;;
58972;SDS011;44750;52.040;7.472;2023-12-14T01:33:55;7.13;;;6.43;;
58972;SDS011;44750;52.040;7.472;2023-12-14T01:38:55;6.82;;;6.13;;
58972;SDS011;44750;52.040;7.472;2023-12-14T01:43:55;6.10;;;5.50;;
58972;SDS011;44750;52.040;7.472;2023-12-14T01:48:55;5.88;;;5.28;;
58972;SDS011;44750;52.040;7.472;2023-12-14T01:53:56;6.00;;;4.50;;
58972;SDS011;44750;52.040;7.472;2023-12-14T01:58:56;6.53;;;4.50;;
58972;SDS011;44750;52.040;7.472;2023-12-14T02:03:56;6.82;;;4.88;;
58972;SDS011;44750;52.040;7.472;2023-12-14T02:08:57;4.45;;;4.05;;
58972;SDS011;44750;52.040;7.472;2023-12-14T02:13:57;4.68;;;4.22;;
58972;SDS011;44750;52.040;7.472;2023-12-14T02:18:57;3.88;;;3.47;;
58972;SDS011;44750;52.040;7.472;2023-12-14T02:23:57;4.37;;;3.50;;
58972;SDS011;44750;52.040;7.472;2023-12-14T02:28:58;4.88;;;3.70;;
58972;SDS011;44750;52.040;7.472;2023-12-14T02:33:58;7.03;;;5.28;;
58972;SDS011;44750;52.040;7.472;2023-12-14T02:38:58;7.50;;;5.00;;
58972;SDS011;44750;52.040;7.472;2023-12-14T02:43:58;6.35;;;5.50;;
58972;SDS011;44750;52.040;7.472;2023-12-14T02:48:59;9.00;;;5.70;;
58972;SDS011;44750;52.040;7.472;2023-12-14T02:53:59;6.20;;;5.60;;
58972;SDS011;44750;52.040;7.472;2023-12-14T02:58:59;5.30;;;4.53;;
58972;SDS011;44750;52.040;7.472;2023-12-14T03:03:59;5.63;;;4.78;;
58972;SDS011;44750;52.040;7.472;2023-12-14T03:09:00;7.03;;;5.43;;
58972;SDS011;44750;52.040;7.472;2023-12-14T03:14:00;4.70;;;4.17;;
58972;SDS011;44750;52.040;7.472;2023-12-14T03:19:00;5.22;;;4.47;;
58972;SDS011;44750;52.040;7.472;2023-12-14T03:24:01;6.55;;;4.60;;
58972;SDS011;44750;52.040;7.472;2023-12-14T03:29:01;5.45;;;4.72;;
58972;SDS011;44750;52.040;7.472;2023-12-14T03:34:02;7.60;;;5.17;;
58972;SDS011;44750;52.040;7.472;2023-12-14T03:39:02;5.13;;;4.63;;
58972;SDS011;44750;52.040;7.472;2023-12-14T03:44:02;5.13;;;4.63;;
58972;SDS011;44750;52.040;7.472;2023-12-14T03:49:03;6.13;;;4.50;;
58972;SDS011;44750;52.040;7.472;2023-12-14T03:54:03;5.07;;;4.20;;
58972;SDS011;44750;52.040;7.472;2023-12-14T03:59:03;4.63;;;4.13;;
58972;SDS011;44750;52.040;7.472;2023-12-14T04:04:04;5.00;;;4.50;;
58972;SDS011;44750;52.040;7.472;2023-12-14T04:09:04;5.50;;;4.32;;
58972;SDS011;44750;52.040;7.472;2023-12-14T04:14:04;6.45;;;4.75;;
58972;SDS011;44750;52.040;7.472;2023-12-14T04:19:05;4.65;;;4.15;;
58972;SDS011;44750;52.040;7.472;2023-12-14T04:24:05;4.90;;;4.38;;
58972;SDS011;44750;52.040;7.472;2023-12-14T04:29:05;4.25;;;3.80;;
58972;SDS011;44750;52.040;7.472;2023-12-14T04:34:06;4.80;;;4.30;;
58972;SDS011;44750;52.040;7.472;2023-12-14T04:39:06;5.30;;;4.80;;
58972;SDS011;44750;52.040;7.472;2023-12-14T04:44:06;4.82;;;4.28;;
58972;SDS011;44750;52.040;7.472;2023-12-14T04:49:06;6.00;;;5.40;;
58972;SDS011;44750;52.040;7.472;2023-12-14T04:54:07;5.15;;;4.50;;
58972;SDS011;44750;52.040;7.472;2023-12-14T04:59:07;7.68;;;6.03;;
58972;SDS011;44750;52.040;7.472;2023-12-14T05:04:07;5.82;;;5.22;;
58972;SDS011;44750;52.040;7.472;2023-12-14T05:09:08;6.27;;;5.57;;
58972;SDS011;44750;52.040;7.472;2023-12-14T05:14:08;7.53;;;6.38;;
58972;SDS011;44750;52.040;7.472;2023-12-14T05:19:08;7.30;;;6.60;;
58972;SDS011;44750;52.040;7.472;2023-12-14T05:24:09;7.88;;;7.10;;
58972;SDS011;44750;52.040;7.472;2023-12-14T05:29:09;12.15;;;8.43;;
58972;SDS011;44750;52.040;7.472;2023-12-14T05:34:10;8.95;;;7.15;;
58972;SDS011;44750;52.040;7.472;2023-12-14T05:39:10;7.40;;;6.70;;
58972;SDS011;44750;52.040;7.472;2023-12-14T05:44:10;7.63;;;6.82;;
58972;SDS011;44750;52.040;7.472;2023-12-14T05:49:10;10.02;;;6.80;;
58972;SDS011;44750;52.040;7.472;2023-12-14T05:54:10;8.48;;;7.60;;
58972;SDS011;44750;52.040;7.472;2023-12-14T05:59:11;10.05;;;8.75;;
58972;SDS011;44750;52.040;7.472;2023-12-14T06:04:11;8.77;;;7.80;;
58972;SDS011;44750;52.040;7.472;2023-12-14T06:09:11;9.55;;;8.45;;
58972;SDS011;44750;52.040;7.472;2023-12-14T06:14:12;9.45;;;8.52;;
58972;SDS011;44750;52.040;7.472;2023-12-14T06:19:12;10.60;;;8.88;;
58972;SDS011;44750;52.040;7.472;2023-12-14T06:24:12;10.05;;;8.88;;
58972;SDS011;44750;52.040;7.472;2023-12-14T06:29:12;9.50;;;8.60;;
58972;SDS011;44750;52.040;7.472;2023-12-14T06:34:13;10.95;;;9.45;;
58972;SDS011;44750;52.040;7.472;2023-12-14T06:39:13;9.63;;;8.63;;
58972;SDS011;44750;52.040;7.472;2023-12-14T06:44:13;9.27;;;8.32;;
58972;SDS011;44750;52.040;7.472;2023-12-14T06:49:13;13.80;;;10.98;;
58972;SDS011;44750;52.040;7.472;2023-12-14T06:54:14;10.43;;;9.40;;
58972;SDS011;44750;52.040;7.472;2023-12-14T06:59:14;10.95;;;9.57;;
58972;SDS011;44750;52.040;7.472;2023-12-14T07:04:14;13.63;;;11.20;;
58972;SDS011;44750;52.040;7.472;2023-12-14T07:09:14;17.65;;;12.70;;
58972;SDS011;44750;52.040;7.472;2023-12-14T07:14:15;17.92;;;13.20;;
58972;SDS011;44750;52.040;7.472;2023-12-14T07:19:15;16.08;;;13.38;;
58972;SDS011;44750;52.040;7.472;2023-12-14T07:24:15;15.98;;;12.93;;
58972;SDS011;44750;52.040;7.472;2023-12-14T07:29:15;15.02;;;11.80;;
58972;SDS011;44750;52.040;7.472;2023-12-14T07:34:16;10.88;;;9.57;;
58972;SDS011;44750;52.040;7.472;2023-12-14T07:39:16;10.90;;;9.75;;
58972;SDS011;44750;52.040;7.472;2023-12-14T07:44:16;10.73;;;9.15;;
58972;SDS011;44750;52.040;7.472;2023-12-14T07:49:16;9.90;;;8.90;;
58972;SDS011;44750;52.040;7.472;2023-12-14T07:54:17;10.13;;;9.05;;
58972;SDS011;44750;52.040;7.472;2023-12-14T07:59:17;9.40;;;8.43;;
58972;SDS011;44750;52.040;7.472;2023-12-14T08:04:18;16.38;;;8.75;;
58972;SDS011;44750;52.040;7.472;2023-12-14T08:09:18;10.43;;;9.37;;
58972;SDS011;44750;52.040;7.472;2023-12-14T08:14:18;10.88;;;9.55;;
58972;SDS011;44750;52.040;7.472;2023-12-14T08:19:18;8.75;;;7.72;;
58972;SDS011;44750;52.040;7.472;2023-12-14T08:24:19;10.02;;;9.02;;
58972;SDS011;44750;52.040;7.472;2023-12-14T08:29:19;10.38;;;8.95;;
58972;SDS011;44750;52.040;7.472;2023-12-14T08:34:19;11.68;;;8.98;;
58972;SDS011;44750;52.040;7.472;2023-12-14T08:39:19;9.85;;;8.65;;
58972;SDS011;44750;52.040;7.472;2023-12-14T08:44:20;11.77;;;10.27;;
58972;SDS011;44750;52.040;7.472;2023-12-14T08:49:20;10.40;;;9.40;;
58972;SDS011;44750;52.040;7.472;2023-12-14T08:54:20;12.88;;;10.82;;
58972;SDS011;44750;52.040;7.472;2023-12-14T08:59:20;11.13;;;9.75;;
58972;SDS011;44750;52.040;7.472;2023-12-14T09:04:21;11.07;;;9.63;;
58972;SDS011;44750;52.040;7.472;2023-12-14T09:09:21;10.95;;;9.85;;
58972;SDS011;44750;52.040;7.472;2023-12-14T09:14:21;13.48;;;10.38;;
58972;SDS011;44750;52.040;7.472;2023-12-14T09:19:21;10.95;;;9.02;;
58972;SDS011;44750;52.040;7.472;2023-12-14T09:24:22;11.15;;;9.90;;
58972;SDS011;44750;52.040;7.472;2023-12-14T09:29:22;12.50;;;10.68;;
58972;SDS011;44750;52.040;7.472;2023-12-14T09:34:22;11.30;;;9.10;;
58972;SDS011;44750;52.040;7.472;2023-12-14T09:39:22;10.60;;;9.45;;
58972;SDS011;44750;52.040;7.472;2023-12-14T09:44:23;11.65;;;9.35;;
58972;SDS011;44750;52.040;7.472;2023-12-14T09:49:24;11.13;;;9.45;;
58972;SDS011;44750;52.040;7.472;2023-12-14T09:54:26;11.15;;;8.82;;
58972;SDS011;44750;52.040;7.472;2023-12-14T09:59:27;13.02;;;9.75;;
58972;SDS011;44750;52.040;7.472;2023-12-14T10:04:27;8.40;;;7.60;;
58972;SDS011;44750;52.040;7.472;2023-12-14T10:09:32;9.32;;;8.32;;
58972;SDS011;44750;52.040;7.472;2023-12-14T10:14:36;8.63;;;7.82;;
58972;SDS011;44750;52.040;7.472;2023-12-14T10:19:37;8.93;;;7.90;;
58972;SDS011;44750;52.040;7.472;2023-12-14T10:24:37;8.75;;;7.88;;
58972;SDS011;44750;52.040;7.472;2023-12-14T10:29:37;13.15;;;8.70;;
58972;SDS011;44750;52.040;7.472;2023-12-14T10:34:38;8.63;;;7.80;;
58972;SDS011;44750;52.040;7.472;2023-12-14T10:39:38;8.33;;;7.53;;
58972;SDS011;44750;52.040;7.472;2023-12-14T10:44:42;8.73;;;7.85;;
58972;SDS011;44750;52.040;7.472;2023-12-14T10:49:43;9.23;;;8.32;;
58972;SDS011;44750;52.040;7.472;2023-12-14T10:54:46;9.75;;;8.60;;
58972;SDS011;44750;52.040;7.472;2023-12-14T10:59:49;10.65;;;8.45;;
58972;SDS011;44750;52.040;7.472;2023-12-14T11:04:56;8.63;;;7.00;;
58972;SDS011;44750;52.040;7.472;2023-12-14T11:10:03;9.27;;;7.53;;
58972;SDS011;44750;52.040;7.472;2023-12-14T11:15:04;9.07;;;8.18;;
58972;SDS011;44750;52.040;7.472;2023-12-14T11:20:23;8.18;;;7.38;;
58972;SDS011;44750;52.040;7.472;2023-12-14T11:25:24;8.23;;;7.43;;
58972;SDS011;44750;52.040;7.472;2023-12-14T11:30:24;8.55;;;7.47;;
58972;SDS011;44750;52.040;7.472;2023-12-14T11:35:24;8.25;;;7.32;;
58972;SDS011;44750;52.040;7.472;2023-12-14T11:40:25;10.45;;;8.23;;
58972;SDS011;44750;52.040;7.472;2023-12-14T11:45:26;8.10;;;7.30;;
58972;SDS011;44750;52.040;7.472;2023-12-14T11:50:26;7.72;;;6.90;;
58972;SDS011;44750;52.040;7.472;2023-12-14T11:55:27;8.00;;;6.85;;
58972;SDS011;44750;52.040;7.472;2023-12-14T12:00:27;7.78;;;7.07;;
58972;SDS011;44750;52.040;7.472;2023-12-14T12:05:35;7.05;;;6.35;;
58972;SDS011;44750;52.040;7.472;2023-12-14T12:10:37;7.72;;;6.97;;
58972;SDS011;44750;52.040;7.472;2023-12-14T12:15:41;10.05;;;7.35;;
58972;SDS011;44750;52.040;7.472;2023-12-14T12:20:42;7.43;;;6.50;;
58972;SDS011;44750;52.040;7.472;2023-12-14T12:25:42;8.20;;;7.13;;
58972;SDS011;44750;52.040;7.472;2023-12-14T12:30:42;8.20;;;7.00;;
58972;SDS011;44750;52.040;7.472;2023-12-14T12:35:43;8.23;;;7.15;;
58972;SDS011;44750;52.040;7.472;2023-12-14T12:40:43;9.50;;;7.07;;
58972;SDS011;44750;52.040;7.472;2023-12-14T12:45:43;6.30;;;5.70;;
58972;SDS011;44750;52.040;7.472;2023-12-14T12:50:43;7.97;;;6.57;;
58972;SDS011;44750;52.040;7.472;2023-12-14T12:55:44;7.38;;;6.68;;
58972;SDS011;44750;52.040;7.472;2023-12-14T13:00:44;7.22;;;6.25;;
58972;SDS011;44750;52.040;7.472;2023-12-14T13:05:44;9.68;;;6.60;;
58972;SDS011;44750;52.040;7.472;2023-12-14T13:10:44;7.35;;;6.65;;
58972;SDS011;44750;52.040;7.472;2023-12-14T13:15:44;7.95;;;7.15;;
58972;SDS011;44750;52.040;7.472;2023-12-14T13:20:45;8.10;;;7.00;;
58972;SDS011;44750;52.040;7.472;2023-12-14T13:25:45;8.43;;;7.50;;
58972;SDS011;44750;52.040;7.472;2023-12-14T13:30:45;7.78;;;7.00;;
58972;SDS011;44750;52.040;7.472;2023-12-14T13:35:45;8.40;;;7.50;;
58972;SDS011;44750;52.040;7.472;2023-12-14T13:40:46;8.50;;;7.60;;
58972;SDS011;44750;52.040;7.472;2023-12-14T13:45:46;11.00;;;7.53;;
58972;SDS011;44750;52.040;7.472;2023-12-14T13:50:46;10.10;;;7.93;;
58972;SDS011;44750;52.040;7.472;2023-12-14T13:55:46;10.15;;;8.10;;
58972;SDS011;44750;52.040;7.472;2023-12-14T14:00:47;11.07;;;8.52;;
58972;SDS011;44750;52.040;7.472;2023-12-14T14:05:47;9.85;;;8.80;;
58972;SDS011;44750;52.040;7.472;2023-12-14T14:10:47;9.32;;;8.40;;
58972;SDS011;44750;52.040;7.472;2023-12-14T14:15:47;10.43;;;9.32;;
58972;SDS011;44750;52.040;7.472;2023-12-14T14:20:48;12.73;;;8.98;;
58972;SDS011;44750;52.040;7.472;2023-12-14T14:25:50;9.60;;;8.57;;
58972;SDS011;44750;52.040;7.472;2023-12-14T14:30:51;10.75;;;8.38;;
58972;SDS011;44750;52.040;7.472;2023-12-14T14:35:52;11.13;;;9.23;;
58972;SDS011;44750;52.040;7.472;2023-12-14T14:40:52;11.85;;;9.70;;
58972;SDS011;44750;52.040;7.472;2023-12-14T14:45:52;14.32;;;9.00;;
58972;SDS011;44750;52.040;7.472;2023-12-14T14:50:53;13.55;;;10.43;;
58972;SDS011;44750;52.040;7.472;2023-12-14T14:55:53;10.95;;;9.85;;
58972;SDS011;44750;52.040;7.472;2023-12-14T15:00:53;11.35;;;10.13;;
58972;SDS011;44750;52.040;7.472;2023-12-14T15:05:53;12.15;;;10.95;;
58972;SDS011;44750;52.040;7.472;2023-12-14T15:10:54;12.73;;;10.60;;
58972;SDS011;44750;52.040;7.472;2023-12-14T15:15:54;12.27;;;10.97;;
58972;SDS011;44750;52.040;7.472;2023-12-14T15:20:54;14.63;;;11.30;;
58972;SDS011;44750;52.040;7.472;2023-12-14T15:25:54;13.55;;;10.38;;
58972;SDS011;44750;52.040;7.472;2023-12-14T15:30:55;13.57;;;12.18;;
58972;SDS011;44750;52.040;7.472;2023-12-14T15:35:55;17.45;;;13.68;;
58972;SDS011;44750;52.040;7.472;2023-12-14T15:40:55;13.48;;;11.38;;
58972;SDS011;44750;52.040;7.472;2023-12-14T15:45:55;13.68;;;11.50;;
58972;SDS011;44750;52.040;7.472;2023-12-14T15:50:56;15.90;;;11.32;;
58972;SDS011;44750;52.040;7.472;2023-12-14T15:55:56;12.05;;;10.85;;
58972;SDS011;44750;52.040;7.472;2023-12-14T16:00:56;11.90;;;10.70;;
58972;SDS011;44750;52.040;7.472;2023-12-14T16:05:57;16.08;;;12.13;;
58972;SDS011;44750;52.040;7.472;2023-12-14T16:10:57;13.07;;;10.95;;
58972;SDS011;44750;52.040;7.472;2023-12-14T16:15:57;13.05;;;11.38;;
58972;SDS011;44750;52.040;7.472;2023-12-14T16:20:57;13.82;;;11.25;;
58972;SDS011;44750;52.040;7.472;2023-12-14T16:25:57;15.18;;;11.23;;
58972;SDS011;44750;52.040;7.472;2023-12-14T16:31:01;13.18;;;11.57;;
58972;SDS011;44750;52.040;7.472;2023-12-14T16:36:11;12.48;;;11.25;;
58972;SDS011;44750;52.040;7.472;2023-12-14T16:41:12;19.08;;;13.88;;
58972;SDS011;44750;52.040;7.472;2023-12-14T16:46:16;14.63;;;12.52;;
58972;SDS011;44750;52.040;7.472;2023-12-14T16:51:17;12.43;;;11.13;;
58972;SDS011;44750;52.040;7.472;2023-12-14T16:56:18;13.68;;;11.95;;
58972;SDS011;44750;52.040;7.472;2023-12-14T17:01:19;13.70;;;11.80;;
58972;SDS011;44750;52.040;7.472;2023-12-14T17:06:19;12.75;;;11.40;;
58972;SDS011;44750;52.040;7.472;2023-12-14T17:11:21;15.88;;;10.98;;
58972;SDS011;44750;52.040;7.472;2023-12-14T17:16:21;12.90;;;10.77;;
58972;SDS011;44750;52.040;7.472;2023-12-14T17:21:22;14.20;;;10.35;;
58972;SDS011;44750;52.040;7.472;2023-12-14T17:26:23;11.68;;;10.20;;
58972;SDS011;44750;52.040;7.472;2023-12-14T17:31:24;14.13;;;10.57;;
58972;SDS011;44750;52.040;7.472;2023-12-14T17:36:25;13.80;;;10.90;;
58972;SDS011;44750;52.040;7.472;2023-12-14T17:41:25;11.77;;;10.23;;
58972;SDS011;44750;52.040;7.472;2023-12-14T17:46:25;37.42;;;11.40;;
58972;SDS011;44750;52.040;7.472;2023-12-14T17:51:25;12.00;;;9.77;;
58972;SDS011;44750;52.040;7.472;2023-12-14T17:56:26;12.77;;;10.70;;
58972;SDS011;44750;52.040;7.472;2023-12-14T18:01:26;16.73;;;13.02;;
58972;SDS011;44750;52.040;7.472;2023-12-14T18:06:26;18.50;;;13.38;;
58972;SDS011;44750;52.040;7.472;2023-12-14T18:11:26;16.95;;;11.90;;
58972;SDS011;44750;52.040;7.472;2023-12-14T18:16:27;14.63;;;10.50;;
58972;SDS011;44750;52.040;7.472;2023-12-14T18:21:27;18.50;;;12.83;;
58972;SDS011;44750;52.040;7.472;2023-12-14T18:26:27;15.60;;;12.50;;
58972;SDS011;44750;52.040;7.472;2023-12-14T18:31:28;22.30;;;12.10;;
58972;SDS011;44750;52.040;7.472;2023-12-14T18:36:28;14.38;;;11.45;;
58972;SDS011;44750;52.040;7.472;2023-12-14T18:41:28;15.90;;;11.68;;
58972;SDS011;44750;52.040;7.472;2023-12-14T18:46:28;14.32;;;11.98;;
58972;SDS011;44750;52.040;7.472;2023-12-14T18:51:29;20.10;;;14.73;;
58972;SDS011;44750;52.040;7.472;2023-12-14T18:56:29;19.85;;;15.93;;
58972;SDS011;44750;52.040;7.472;2023-12-14T19:01:29;13.07;;;11.68;;
58972;SDS011;44750;52.040;7.472;2023-12-14T19:06:29;16.13;;;11.90;;
58972;SDS011;44750;52.040;7.472;2023-12-14T19:11:30;18.10;;;12.10;;
58972;SDS011;44750;52.040;7.472;2023-12-14T19:16:30;13.32;;;10.63;;
58972;SDS011;44750;52.040;7.472;2023-12-14T19:21:31;11.05;;;9.93;;
58972;SDS011;44750;52.040;7.472;2023-12-14T19:26:31;16.98;;;12.20;;
58972;SDS011;44750;52.040;7.472;2023-12-14T19:31:31;16.52;;;14.68;;
58972;SDS011;44750;52.040;7.472;2023-12-14T19:36:31;14.18;;;11.93;;
58972;SDS011;44750;52.040;7.472;2023-12-14T19:41:32;16.33;;;12.43;;
58972;SDS011;44750;52.040;7.472;2023-12-14T19:46:32;13.30;;;11.30;;
58972;SDS011;44750;52.040;7.472;2023-12-14T19:51:36;14.15;;;12.65;;
58972;SDS011;44750;52.040;7.472;2023-12-14T19:56:42;27.02;;;19.73;;
58972;SDS011;44750;52.040;7.472;2023-12-14T20:01:43;18.42;;;16.13;;
58972;SDS011;44750;52.040;7.472;2023-12-14T20:06:44;18.13;;;14.83;;
58972;SDS011;44750;52.040;7.472;2023-12-14T20:11:44;28.00;;;17.25;;
58972;SDS011;44750;52.040;7.472;2023-12-14T20:16:45;13.85;;;12.27;;
58972;SDS011;44750;52.040;7.472;2023-12-14T20:21:48;23.53;;;13.93;;
58972;SDS011;44750;52.040;7.472;2023-12-14T20:26:48;13.05;;;11.45;;
58972;SDS011;44750;52.040;7.472;2023-12-14T20:31:48;16.25;;;12.57;;
58972;SDS011;44750;52.040;7.472;2023-12-14T20:36:49;20.10;;;15.07;;
58972;SDS011;44750;52.040;7.472;2023-12-14T20:41:49;16.65;;;13.88;;
58972;SDS011;44750;52.040;7.472;2023-12-14T20:46:49;14.35;;;11.93;;
58972;SDS011;44750;52.040;7.472;2023-12-14T20:51:49;14.70;;;11.02;;
58972;SDS011;44750;52.040;7.472;2023-12-14T20:56:50;15.05;;;11.15;;
58972;SDS011;44750;52.040;7.472;2023-12-14T21:01:50;14.70;;;11.50;;
58972;SDS011;44750;52.040;7.472;2023-12-14T21:06:50;13.23;;;11.68;;
58972;SDS011;44750;52.040;7.472;2023-12-14T21:11:50;15.75;;;13.90;;
58972;SDS011;44750;52.040;7.472;2023-12-14T21:16:51;17.67;;;15.17;;
58972;SDS011;44750;52.040;7.472;2023-12-14T21:21:51;16.23;;;14.05;;
58972;SDS011;44750;52.040;7.472;2023-12-14T21:26:51;13.23;;;11.83;;
58972;SDS011;44750;52.040;7.472;2023-12-14T21:31:51;15.30;;;11.70;;
58972;SDS011;44750;52.040;7.472;2023-12-14T21:36:52;13.95;;;12.27;;
58972;SDS011;44750;52.040;7.472;2023-12-14T21:41:52;14.52;;;11.63;;
58972;SDS011;44750;52.040;7.472;2023-12-14T21:46:52;16.88;;;14.30;;
58972;SDS011;44750;52.040;7.472;2023-12-14T21:51:52;17.92;;;14.48;;
58972;SDS011;44750;52.040;7.472;2023-12-14T21:56:53;22.05;;;12.73;;
58972;SDS011;44750;52.040;7.472;2023-12-14T22:01:53;14.32;;;11.85;;
58972;SDS011;44750;52.040;7.472;2023-12-14T22:06:54;20.25;;;12.27;;
58972;SDS011;44750;52.040;7.472;2023-12-14T22:11:54;13.43;;;12.02;;
58972;SDS011;44750;52.040;7.472;2023-12-14T22:16:54;15.30;;;12.93;;
58972;SDS011;44750;52.040;7.472;2023-12-14T22:21:55;19.02;;;13.05;;
58972;SDS011;44750;52.040;7.472;2023-12-14T22:26:55;17.23;;;13.45;;
58972;SDS011;44750;52.040;7.472;2023-12-14T22:31:55;16.48;;;13.95;;
58972;SDS011;44750;52.040;7.472;2023-12-14T22:36:56;15.90;;;13.57;;
58972;SDS011;44750;52.040;7.472;2023-12-14T22:41:56;15.95;;;13.40;;
58972;SDS011;44750;52.040;7.472;2023-12-14T22:46:56;15.70;;;13.23;;
58972;SDS011;44750;52.040;7.472;2023-12-14T22:51:57;18.40;;;13.85;;
58972;SDS011;44750;52.040;7.472;2023-12-14T22:56:57;18.38;;;14.18;;
58972;SDS011;44750;52.040;7.472;2023-12-14T23:01:57;18.17;;;14.35;;
58972;SDS011;44750;52.040;7.472;2023-12-14T23:06:58;17.35;;;14.07;;
58972;SDS011;44750;52.040;7.472;2023-12-14T23:11:58;18.63;;;13.27;;
58972;SDS011;44750;52.040;7.472;2023-12-14T23:16:58;16.15;;;12.93;;
58972;SDS011;44750;52.040;7.472;2023-12-14T23:21:59;16.55;;;13.93;;
58972;SDS011;44750;52.040;7.472;2023-12-14T23:26:59;15.77;;;13.02;;
58972;SDS011;44750;52.040;7.472;2023-12-14T23:31:59;17.90;;;14.95;;
58972;SDS011;44750;52.040;7.472;2023-12-14T23:36:59;18.23;;;15.07;;
58972;SDS011;44750;52.040;7.472;2023-12-14T23:42:00;23.00;;;15.30;;
58972;SDS011;44750;52.040;7.472;2023-12-14T23:47:00;17.60;;;14.27;;
58972;SDS011;44750;52.040;7.472;2023-12-14T23:52:00;22.20;;;15.18;;
58972;SDS011;44750;52.040;7.472;2023-12-14T23:57:00;26.30;;;14.13;;
